Time;durP1;ratioP1;P1;durP2;ratioP2;P2;SDS_P1;SDS_P2;PMS_P1;PMS_P2;Temp;Humidity;BMP_temperature;BMP_pressure;BME280_temperature;BME280_humidity;BME280_pressure;Samples;Min_cycle;Max_cycle;Signal;HPM_P1;HPM_P2
2021/10/19 00:00:06;;;;;;;12.13;5.47;;;7.40;99.90;;;;;;5024065;28;20033;-81
2021/10/19 00:02:32;;;;;;;10.37;5.00;;;7.30;99.90;;;;;;5014441;28;20052;-81
2021/10/19 00:04:57;;;;;;;10.90;5.47;;;7.20;99.90;;;;;;5014443;28;20321;-82
2021/10/19 00:07:24;;;;;;;10.40;5.37;;;7.20;99.90;;;;;;5014789;28;20038;-82
2021/10/19 00:09:49;;;;;;;11.70;5.10;;;7.20;99.90;;;;;;5014425;28;20030;-81
2021/10/19 00:12:15;;;;;;;15.03;6.57;;;7.20;99.90;;;;;;5015224;28;20448;-82
2021/10/19 00:14:41;;;;;;;11.97;5.63;;;7.20;99.90;;;;;;5036294;28;20105;-82
2021/10/19 00:17:06;;;;;;;14.07;5.80;;;7.20;99.90;;;;;;5036189;28;20055;-81
2021/10/19 00:19:33;;;;;;;11.23;5.43;;;7.20;99.90;;;;;;5035387;28;20055;-81
2021/10/19 00:21:58;;;;;;;12.90;5.90;;;7.30;99.90;;;;;;5016375;28;20067;-81
2021/10/19 00:24:24;;;;;;;13.20;6.37;;;7.30;99.90;;;;;;5032232;28;20049;-81
2021/10/19 00:26:50;;;;;;;11.97;5.60;;;7.30;99.90;;;;;;5032227;28;20148;-81
2021/10/19 00:29:16;;;;;;;11.23;5.57;;;7.30;99.90;;;;;;5022291;28;20401;-82
2021/10/19 00:31:41;;;;;;;10.33;5.63;;;7.20;99.90;;;;;;5031172;28;20147;-81
2021/10/19 00:34:07;;;;;;;13.47;6.03;;;7.40;99.90;;;;;;5026214;28;20030;-81
2021/10/19 00:36:32;;;;;;;9.07;4.73;;;7.20;99.90;;;;;;5028655;28;20025;-81
2021/10/19 00:38:58;;;;;;;9.07;4.67;;;7.20;99.90;;;;;;5041783;28;20094;-81
2021/10/19 00:41:24;;;;;;;9.33;5.03;;;7.20;99.90;;;;;;5035590;28;20029;-81
2021/10/19 00:43:52;;;;;;;10.37;4.80;;;7.30;99.90;;;;;;5035521;28;20033;-81
2021/10/19 00:46:17;;;;;;;11.37;5.30;;;7.30;99.90;;;;;;5023080;28;20080;-81
2021/10/19 00:48:46;;;;;;;10.63;4.97;;;7.40;99.90;;;;;;5017815;28;20034;-81
2021/10/19 00:51:13;;;;;;;12.17;4.90;;;7.30;99.90;;;;;;5031556;28;20025;-81
2021/10/19 00:53:39;;;;;;;11.63;5.40;;;7.30;99.90;;;;;;5016774;28;20121;-82
2021/10/19 00:56:06;;;;;;;8.00;5.00;;;7.40;99.90;;;;;;5042672;28;20060;-82
2021/10/19 00:58:32;;;;;;;8.70;4.67;;;7.30;99.90;;;;;;5024775;28;20083;-81
2021/10/19 01:00:58;;;;;;;9.50;4.47;;;7.30;99.90;;;;;;5035809;28;20431;-82
2021/10/19 01:03:24;;;;;;;8.67;4.40;;;7.30;99.90;;;;;;5036952;28;20029;-82
2021/10/19 01:05:49;;;;;;;8.57;4.20;;;7.30;99.90;;;;;;5025417;28;20030;-82
2021/10/19 01:08:15;;;;;;;9.03;4.60;;;7.30;99.90;;;;;;5028917;28;20030;-82
2021/10/19 01:10:43;;;;;;;7.93;4.77;;;7.30;99.90;;;;;;5034968;28;20021;-81
2021/10/19 01:13:09;;;;;;;8.93;4.53;;;7.30;99.90;;;;;;5036442;28;20029;-81
2021/10/19 01:15:34;;;;;;;10.17;4.87;;;7.30;99.90;;;;;;5027590;28;20419;-81
2021/10/19 01:18:00;;;;;;;10.97;4.93;;;7.30;99.90;;;;;;5034873;28;20033;-81
2021/10/19 01:20:32;;;;;;;8.67;4.40;;;7.30;99.90;;;;;;5035046;28;20017;-82
2021/10/19 01:22:58;;;;;;;9.97;5.13;;;7.30;99.90;;;;;;5030199;28;20072;-81
2021/10/19 01:25:26;;;;;;;11.33;5.20;;;7.20;99.90;;;;;;5032286;28;20135;-81
2021/10/19 01:27:56;;;;;;;10.67;5.17;;;7.20;99.90;;;;;;5015590;28;20033;-81
2021/10/19 01:30:23;;;;;;;7.90;4.20;;;7.20;99.90;;;;;;5031224;28;20068;-81
2021/10/19 01:32:49;;;;;;;11.00;5.33;;;7.10;99.90;;;;;;5019759;28;20034;-82
2021/10/19 01:35:15;;;;;;;8.60;4.67;;;7.20;99.90;;;;;;5035675;28;20033;-82
2021/10/19 01:37:41;;;;;;;10.27;5.03;;;7.10;99.90;;;;;;5036265;28;20081;-81
2021/10/19 01:40:13;;;;;;;10.30;5.37;;;7.10;99.90;;;;;;5029829;28;20045;-81
2021/10/19 01:42:39;;;;;;;9.73;5.03;;;7.20;99.90;;;;;;5016029;28;20022;-81
2021/10/19 01:45:14;;;;;;;7.63;4.10;;;7.10;99.90;;;;;;5015963;28;20390;-81
2021/10/19 01:47:39;;;;;;;10.07;4.33;;;7.10;99.90;;;;;;5011994;28;20056;-82
2021/10/19 01:50:06;;;;;;;8.33;4.20;;;7.30;99.90;;;;;;5029463;28;20030;-82
2021/10/19 01:52:31;;;;;;;9.90;4.80;;;7.20;99.90;;;;;;5030720;28;20037;-81
2021/10/19 01:54:57;;;;;;;9.63;4.97;;;7.20;99.90;;;;;;5016273;28;20030;-81
2021/10/19 01:57:23;;;;;;;8.67;4.47;;;7.20;99.90;;;;;;5020680;28;20112;-81
2021/10/19 01:59:49;;;;;;;9.10;4.67;;;7.20;99.90;;;;;;5014956;28;20029;-81
2021/10/19 02:02:15;;;;;;;9.93;4.60;;;7.20;99.90;;;;;;5015694;28;20362;-81
2021/10/19 02:04:40;;;;;;;8.57;4.30;;;7.30;99.90;;;;;;5017292;28;20038;-81
2021/10/19 02:07:06;;;;;;;7.97;4.10;;;7.20;99.90;;;;;;5023875;28;20053;-81
2021/10/19 02:09:32;;;;;;;7.27;3.80;;;7.20;99.90;;;;;;5039897;28;20540;-82
2021/10/19 02:11:57;;;;;;;8.70;4.80;;;7.20;99.90;;;;;;5039227;28;20041;-81
2021/10/19 02:14:23;;;;;;;7.70;4.03;;;7.30;99.90;;;;;;5026764;28;20116;-81
2021/10/19 02:16:48;;;;;;;7.27;4.00;;;7.30;99.90;;;;;;5020320;28;20034;-82
2021/10/19 02:19:14;;;;;;;9.30;4.70;;;7.30;99.90;;;;;;5020432;28;20029;-81
2021/10/19 02:21:40;;;;;;;7.93;4.80;;;7.30;99.90;;;;;;5020102;28;20038;-81
2021/10/19 02:24:05;;;;;;;8.70;4.03;;;7.30;99.90;;;;;;5026282;28;20109;-82
2021/10/19 02:26:31;;;;;;;8.80;4.57;;;7.30;99.90;;;;;;5035007;28;20374;-81
2021/10/19 02:28:56;;;;;;;9.13;3.80;;;7.20;99.90;;;;;;5020627;28;20022;-81
2021/10/19 02:31:22;;;;;;;7.73;3.80;;;7.30;99.90;;;;;;5034070;28;20029;-81
2021/10/19 02:33:47;;;;;;;9.27;4.83;;;7.20;99.90;;;;;;5017371;28;20038;-81
2021/10/19 02:36:13;;;;;;;9.20;4.20;;;7.20;99.90;;;;;;5030720;28;20092;-82
2021/10/19 02:38:38;;;;;;;8.60;4.43;;;7.30;99.90;;;;;;5037558;28;20025;-81
2021/10/19 02:41:04;;;;;;;7.77;4.13;;;7.30;99.90;;;;;;5038679;28;20079;-81
2021/10/19 02:43:30;;;;;;;9.47;4.20;;;7.30;99.90;;;;;;5037654;28;20097;-81
2021/10/19 02:45:55;;;;;;;9.40;4.43;;;7.40;99.90;;;;;;5039573;28;20367;-81
2021/10/19 02:48:21;;;;;;;9.07;4.23;;;7.40;99.90;;;;;;5016536;28;20065;-81
2021/10/19 02:50:46;;;;;;;8.20;3.90;;;7.40;99.90;;;;;;5018532;28;20030;-82
2021/10/19 02:53:12;;;;;;;7.83;3.63;;;7.50;99.90;;;;;;5019259;28;20030;-82
2021/10/19 02:55:38;;;;;;;8.30;3.53;;;7.50;99.90;;;;;;5019193;28;20508;-82
2021/10/19 02:58:03;;;;;;;10.23;4.30;;;7.50;99.90;;;;;;5019786;28;20040;-82
2021/10/19 03:00:29;;;;;;;10.33;3.90;;;7.50;99.90;;;;;;5018887;28;20033;-81
2021/10/19 03:02:55;;;;;;;8.63;3.53;;;7.50;99.90;;;;;;5019661;28;20025;-82
2021/10/19 03:05:20;;;;;;;7.53;3.90;;;7.50;99.90;;;;;;5034397;28;20469;-82
2021/10/19 03:07:46;;;;;;;7.03;3.63;;;7.50;99.90;;;;;;5033569;28;20496;-81
2021/10/19 03:10:14;;;;;;;9.37;3.80;;;7.50;99.90;;;;;;5038988;28;20038;-81
2021/10/19 03:12:40;;;;;;;6.30;3.50;;;7.60;99.90;;;;;;5040650;28;20025;-81
2021/10/19 03:15:06;;;;;;;8.33;3.93;;;7.60;99.90;;;;;;5034655;28;20086;-81
2021/10/19 03:17:32;;;;;;;7.97;3.90;;;7.70;99.90;;;;;;5049775;23;20093;-77
2021/10/19 03:19:57;;;;;;;7.17;3.97;;;7.70;99.90;;;;;;5015505;28;20437;-78
2021/10/19 03:22:23;;;;;;;9.57;3.73;;;7.70;99.90;;;;;;5016623;28;20029;-80
2021/10/19 03:24:48;;;;;;;7.60;3.97;;;7.70;99.90;;;;;;5030983;28;20029;-80
2021/10/19 03:27:14;;;;;;;8.48;3.72;;;7.70;99.90;;;;;;5030681;28;20088;-81
2021/10/19 03:29:41;;;;;;;7.03;3.60;;;7.80;99.90;;;;;;5033084;28;20100;-81
2021/10/19 03:32:06;;;;;;;8.50;3.73;;;7.80;99.90;;;;;;5034945;28;20021;-80
2021/10/19 03:34:33;;;;;;;6.50;3.20;;;7.80;99.90;;;;;;5034203;28;20120;-79
2021/10/19 03:36:59;;;;;;;9.00;3.83;;;7.80;99.90;;;;;;5032290;28;20125;-81
2021/10/19 03:39:24;;;;;;;8.20;3.38;;;7.80;99.90;;;;;;5034879;28;20400;-81
2021/10/19 03:41:50;;;;;;;7.97;3.80;;;7.80;99.90;;;;;;5037154;28;20032;-79
2021/10/19 03:44:16;;;;;;;8.23;3.60;;;7.80;99.90;;;;;;5037759;28;20025;-77
2021/10/19 03:46:41;;;;;;;6.80;3.57;;;7.80;99.90;;;;;;5018646;28;20033;-79
2021/10/19 03:49:07;;;;;;;7.53;3.70;;;7.80;99.90;;;;;;5036847;28;20505;-80
2021/10/19 03:51:33;;;;;;;6.20;3.07;;;7.80;99.90;;;;;;5034504;28;20151;-80
2021/10/19 03:53:58;;;;;;;6.30;3.17;;;7.90;99.90;;;;;;5034236;28;20028;-80
2021/10/19 03:56:24;;;;;;;6.20;3.23;;;7.80;99.90;;;;;;5018953;28;20092;-78
2021/10/19 03:58:50;;;;;;;6.30;3.97;;;7.80;99.90;;;;;;5031385;28;20022;-80
2021/10/19 04:01:16;;;;;;;8.63;3.73;;;7.80;99.90;;;;;;5030412;28;20026;-81
2021/10/19 04:03:42;;;;;;;7.88;3.78;;;7.80;99.90;;;;;;5028818;28;20033;-80
2021/10/19 04:06:09;;;;;;;7.47;3.37;;;7.80;99.90;;;;;;5015686;28;20033;-79
2021/10/19 04:08:34;;;;;;;6.55;3.10;;;7.80;99.90;;;;;;5015733;28;20030;-80
2021/10/19 04:11:00;;;;;;;6.93;3.33;;;7.80;99.90;;;;;;5024713;28;20641;-80
2021/10/19 04:13:26;;;;;;;7.20;3.63;;;7.80;99.90;;;;;;5036042;28;20033;-80
2021/10/19 04:15:51;;;;;;;7.65;3.60;;;7.80;99.90;;;;;;5054714;28;20438;-80
2021/10/19 04:18:17;;;;;;;6.03;3.20;;;7.80;99.90;;;;;;5038680;28;20021;-79
2021/10/19 04:20:42;;;;;;;7.30;3.63;;;7.80;99.90;;;;;;5052494;28;20032;-79
2021/10/19 04:23:08;;;;;;;7.00;3.40;;;7.90;99.90;;;;;;5052769;28;20029;-79
2021/10/19 04:25:36;;;;;;;6.83;3.30;;;7.90;99.90;;;;;;5046212;28;20033;-80
2021/10/19 04:28:02;;;;;;;6.10;3.00;;;7.90;99.90;;;;;;5041204;28;20030;-79
2021/10/19 04:30:27;;;;;;;7.80;3.80;;;7.90;99.90;;;;;;5039788;28;20025;-78
2021/10/19 04:32:53;;;;;;;6.77;3.07;;;8.00;99.90;;;;;;5037481;28;20045;-78
2021/10/19 04:35:19;;;;;;;6.10;2.88;;;8.00;99.90;;;;;;5036364;28;20037;-80
2021/10/19 04:37:44;;;;;;;6.85;3.05;;;8.00;99.90;;;;;;5033247;28;20045;-80
2021/10/19 04:40:11;;;;;;;6.10;3.03;;;8.00;99.90;;;;;;5034740;28;20056;-80
2021/10/19 04:42:37;;;;;;;6.95;3.22;;;8.10;99.90;;;;;;5037496;28;20031;-80
2021/10/19 04:45:05;;;;;;;6.87;3.13;;;8.10;99.90;;;;;;5031124;28;20501;-79
2021/10/19 04:47:30;;;;;;;6.93;3.03;;;8.10;99.90;;;;;;5025422;28;20078;-80
2021/10/19 04:49:58;;;;;;;6.33;3.17;;;8.10;99.90;;;;;;5044223;28;20487;-79
2021/10/19 04:52:25;;;;;;;6.47;2.90;;;8.20;99.90;;;;;;5037415;28;20042;-79
2021/10/19 04:54:52;;;;;;;5.57;2.83;;;8.20;99.90;;;;;;5036351;28;20022;-80
2021/10/19 04:57:18;;;;;;;6.00;3.50;;;8.20;99.90;;;;;;5034303;28;20017;-79
2021/10/19 04:59:43;;;;;;;6.35;3.30;;;8.20;99.90;;;;;;5039498;28;20024;-80
2021/10/19 05:02:09;;;;;;;5.47;2.73;;;8.20;99.90;;;;;;5035925;28;20103;-79
2021/10/19 05:04:34;;;;;;;6.50;3.00;;;8.20;99.90;;;;;;5032654;28;20035;-81
2021/10/19 05:07:00;;;;;;;5.67;2.87;;;8.20;99.90;;;;;;5038825;28;20029;-80
2021/10/19 05:09:26;;;;;;;6.03;3.23;;;8.20;99.90;;;;;;5037264;28;20410;-80
2021/10/19 05:11:51;;;;;;;7.20;3.50;;;8.20;99.90;;;;;;5034345;28;20053;-81
2021/10/19 05:14:17;;;;;;;5.55;3.13;;;8.30;99.90;;;;;;5034566;28;20037;-81
2021/10/19 05:16:43;;;;;;;4.78;2.92;;;8.30;99.90;;;;;;5044272;28;20492;-80
2021/10/19 05:19:08;;;;;;;5.88;3.03;;;8.30;99.90;;;;;;5043226;28;20038;-81
2021/10/19 05:21:34;;;;;;;7.68;3.20;;;8.30;99.90;;;;;;5028457;28;20084;-81
2021/10/19 05:23:59;;;;;;;5.72;3.05;;;8.20;99.90;;;;;;5033316;28;20051;-81
2021/10/19 05:26:25;;;;;;;5.97;3.08;;;8.30;99.90;;;;;;5043429;28;20032;-81
2021/10/19 05:28:51;;;;;;;8.23;3.80;;;8.30;99.90;;;;;;5031275;28;20033;-81
2021/10/19 05:31:19;;;;;;;4.55;2.45;;;8.30;99.90;;;;;;5036564;28;20026;-81
2021/10/19 05:33:45;;;;;;;5.72;3.03;;;8.30;99.90;;;;;;5030645;28;20160;-79
2021/10/19 05:36:10;;;;;;;6.80;3.10;;;8.30;99.90;;;;;;5032728;28;20550;-81
2021/10/19 05:38:36;;;;;;;5.57;3.15;;;8.30;99.90;;;;;;5030626;28;20029;-81
2021/10/19 05:41:03;;;;;;;5.53;2.60;;;8.30;99.90;;;;;;5046736;28;20417;-81
2021/10/19 05:43:29;;;;;;;6.32;3.15;;;8.30;99.90;;;;;;5046901;28;20082;-80
2021/10/19 05:45:54;;;;;;;7.18;3.25;;;8.30;99.90;;;;;;5045914;28;20462;-79
2021/10/19 05:48:20;;;;;;;8.77;3.20;;;8.30;99.90;;;;;;5016211;28;20120;-80
2021/10/19 05:50:46;;;;;;;6.97;3.15;;;8.30;99.90;;;;;;5020257;28;20080;-80
2021/10/19 05:53:12;;;;;;;7.45;3.45;;;8.30;99.90;;;;;;5045310;28;20033;-79
2021/10/19 05:55:37;;;;;;;7.82;3.22;;;8.40;99.90;;;;;;5039391;28;20032;-80
2021/10/19 05:58:06;;;;;;;7.73;3.60;;;8.40;99.90;;;;;;5042256;28;20493;-80
2021/10/19 06:00:32;;;;;;;5.70;3.00;;;8.50;99.90;;;;;;5042026;28;20025;-80
2021/10/19 06:02:58;;;;;;;6.47;3.05;;;8.60;99.90;;;;;;5041356;28;20087;-80
2021/10/19 06:05:24;;;;;;;7.82;3.67;;;8.70;99.90;;;;;;5046628;28;20448;-81
2021/10/19 06:07:51;;;;;;;6.88;3.47;;;8.80;99.90;;;;;;5040546;28;20029;-80
2021/10/19 06:10:21;;;;;;;6.03;3.03;;;8.90;99.90;;;;;;5040167;28;20041;-80
2021/10/19 06:12:47;;;;;;;6.30;3.72;;;9.10;99.90;;;;;;5044600;28;20128;-80
2021/10/19 06:15:15;;;;;;;10.40;3.33;;;9.20;99.90;;;;;;5040930;28;20044;-80
2021/10/19 06:17:41;;;;;;;5.68;3.47;;;9.20;99.90;;;;;;5038999;28;20099;-80
2021/10/19 06:20:07;;;;;;;6.10;3.20;;;9.10;99.90;;;;;;5039717;28;20022;-80
2021/10/19 06:22:32;;;;;;;7.87;3.90;;;9.20;99.90;;;;;;5053274;28;20025;-80
2021/10/19 06:24:58;;;;;;;6.28;3.50;;;9.10;99.90;;;;;;5046873;28;20018;-80
2021/10/19 06:27:24;;;;;;;7.35;3.53;;;9.10;99.90;;;;;;5049552;28;20033;-79
2021/10/19 06:29:49;;;;;;;6.03;3.28;;;9.10;99.90;;;;;;5038828;28;20037;-80
2021/10/19 06:32:15;;;;;;;7.43;3.58;;;9.10;99.90;;;;;;5038318;28;20033;-80
2021/10/19 06:34:40;;;;;;;7.18;2.90;;;9.20;99.90;;;;;;5044710;28;20055;-81
2021/10/19 06:37:06;;;;;;;6.78;3.10;;;9.20;99.90;;;;;;5044593;28;20069;-80
2021/10/19 06:39:32;;;;;;;6.50;3.25;;;9.10;99.90;;;;;;5030030;28;20026;-81
2021/10/19 06:41:57;;;;;;;6.55;3.53;;;9.20;99.90;;;;;;5019338;28;20029;-81
2021/10/19 06:44:23;;;;;;;9.63;3.03;;;9.20;99.90;;;;;;5035006;28;20033;-81
2021/10/19 06:46:49;;;;;;;6.35;2.97;;;9.10;99.90;;;;;;5045447;28;20421;-80
2021/10/19 06:49:15;;;;;;;7.85;3.28;;;9.20;99.90;;;;;;5027098;28;20053;-78
2021/10/19 06:51:42;;;;;;;7.32;3.35;;;9.20;99.90;;;;;;5042881;28;20056;-79
2021/10/19 06:54:08;;;;;;;6.15;2.85;;;9.10;99.90;;;;;;5037195;28;20054;-82
2021/10/19 06:56:33;;;;;;;6.78;3.25;;;9.20;99.90;;;;;;5040978;28;20037;-83
2021/10/19 06:58:59;;;;;;;5.93;3.03;;;9.20;99.90;;;;;;5039268;28;20026;-81
2021/10/19 07:01:25;;;;;;;6.97;2.85;;;9.20;99.90;;;;;;5056519;28;20052;-80
2021/10/19 07:03:50;;;;;;;9.52;3.10;;;9.20;99.90;;;;;;5056686;28;20032;-82
2021/10/19 07:06:16;;;;;;;7.55;3.55;;;9.20;99.90;;;;;;5029388;28;20033;-81
2021/10/19 07:08:42;;;;;;;8.13;3.15;;;9.20;99.90;;;;;;5052679;28;20037;-80
2021/10/19 07:11:08;;;;;;;5.65;3.50;;;9.20;99.90;;;;;;5049548;28;20021;-82
2021/10/19 07:13:34;;;;;;;6.18;3.50;;;9.20;99.90;;;;;;5041940;28;20108;-81
2021/10/19 07:16:00;;;;;;;9.82;3.65;;;9.30;99.90;;;;;;5039359;28;20048;-82
2021/10/19 07:18:28;;;;;;;6.20;3.17;;;9.30;99.90;;;;;;5039559;28;20080;-82
2021/10/19 07:20:54;;;;;;;6.90;2.88;;;9.30;99.90;;;;;;5003878;28;20057;-82
2021/10/19 07:23:21;;;;;;;7.22;3.03;;;9.30;99.90;;;;;;5039454;28;20036;-82
2021/10/19 07:25:47;;;;;;;5.97;3.67;;;9.40;99.90;;;;;;5029252;28;20033;-83
2021/10/19 07:28:14;;;;;;;7.70;3.63;;;9.40;99.90;;;;;;5035666;28;20444;-82
2021/10/19 07:30:40;;;;;;;6.45;3.10;;;9.40;99.90;;;;;;5031590;28;20136;-83
2021/10/19 07:33:07;;;;;;;7.22;3.42;;;9.50;99.90;;;;;;5029970;28;20076;-82
2021/10/19 07:35:33;;;;;;;5.65;3.20;;;9.50;99.90;;;;;;5037979;28;20029;-82
2021/10/19 07:37:59;;;;;;;8.13;3.28;;;9.50;99.90;;;;;;5033631;28;20036;-82
2021/10/19 07:40:25;;;;;;;6.97;3.40;;;9.60;99.90;;;;;;5030175;28;20075;-82
2021/10/19 07:42:50;;;;;;;6.03;3.22;;;9.60;99.90;;;;;;5023945;28;20045;-83
2021/10/19 07:45:21;;;;;;;5.93;3.00;;;9.60;99.90;;;;;;5032636;28;20064;-83
2021/10/19 07:47:47;;;;;;;7.47;3.33;;;9.70;99.90;;;;;;5034221;28;20373;-83
2021/10/19 07:50:21;;;;;;;7.45;3.63;;;9.80;99.90;;;;;;5029412;28;20046;-82
2021/10/19 07:52:51;;;;;;;5.78;3.00;;;9.80;99.90;;;;;;5013532;28;20060;-82
2021/10/19 07:55:18;;;;;;;6.88;3.38;;;9.90;99.90;;;;;;4999928;28;20168;-82
2021/10/19 07:57:47;;;;;;;6.38;3.40;;;10.00;99.90;;;;;;5032167;28;20061;-82
2021/10/19 08:00:19;;;;;;;5.72;3.08;;;10.00;99.90;;;;;;5018875;28;20034;-82
2021/10/19 08:02:46;;;;;;;6.00;3.05;;;10.00;99.90;;;;;;5032185;28;20478;-82
2021/10/19 08:05:14;;;;;;;6.30;3.40;;;10.10;99.90;;;;;;5032500;28;20098;-82
2021/10/19 08:07:47;;;;;;;8.80;3.50;;;10.10;99.90;;;;;;5028284;28;20026;-82
2021/10/19 08:10:23;;;;;;;10.00;3.50;;;10.20;99.90;;;;;;5030348;28;20041;-83
2021/10/19 08:12:50;;;;;;;5.95;2.90;;;10.30;99.90;;;;;;5033821;28;20121;-83
2021/10/19 08:15:16;;;;;;;6.38;3.33;;;10.40;99.90;;;;;;5037677;28;20033;-83
2021/10/19 08:17:42;;;;;;;5.35;3.38;;;10.40;99.90;;;;;;5038167;28;20033;-83
2021/10/19 08:20:09;;;;;;;6.57;3.30;;;10.60;99.90;;;;;;5034456;28;20482;-83
2021/10/19 08:22:35;;;;;;;6.28;3.28;;;10.50;99.90;;;;;;5045001;28;20029;-81
2021/10/19 08:25:06;;;;;;;7.03;3.42;;;10.60;99.90;;;;;;5022267;28;20041;-81
2021/10/19 08:27:32;;;;;;;5.65;2.75;;;10.70;99.90;;;;;;5017474;28;20026;-83
2021/10/19 08:29:58;;;;;;;5.07;2.88;;;10.70;99.90;;;;;;5030858;28;20490;-81
2021/10/19 08:32:24;;;;;;;5.95;3.22;;;10.80;99.90;;;;;;5017323;28;20022;-83
2021/10/19 08:34:49;;;;;;;7.47;3.60;;;10.80;99.90;;;;;;5017510;28;20037;-81
2021/10/19 08:37:15;;;;;;;5.97;2.88;;;10.90;99.90;;;;;;5043827;28;20520;-81
2021/10/19 08:39:41;;;;;;;7.13;3.35;;;11.00;99.90;;;;;;5048451;28;20444;-82
2021/10/19 08:42:07;;;;;;;5.68;3.20;;;11.10;99.90;;;;;;5039672;28;20021;-81
2021/10/19 08:44:33;;;;;;;5.55;2.67;;;11.20;99.90;;;;;;5036717;28;20053;-81
2021/10/19 08:47:01;;;;;;;6.88;3.47;;;11.20;99.90;;;;;;5035625;28;20083;-82
2021/10/19 08:49:27;;;;;;;6.95;2.95;;;11.20;99.90;;;;;;5035664;28;20025;-81
2021/10/19 08:51:52;;;;;;;6.32;3.20;;;11.20;99.90;;;;;;5015733;28;20029;-81
2021/10/19 08:54:18;;;;;;;6.22;2.97;;;11.20;99.90;;;;;;5030987;28;20553;-80
2021/10/19 08:56:43;;;;;;;4.68;2.05;;;11.10;99.90;;;;;;5015931;28;20025;-81
2021/10/19 08:59:12;;;;;;;5.75;2.85;;;11.10;99.90;;;;;;5015388;28;20095;-79
2021/10/19 09:01:40;;;;;;;5.55;2.55;;;11.20;99.90;;;;;;5015080;28;20089;-80
2021/10/19 09:04:09;;;;;;;6.78;2.88;;;11.10;99.90;;;;;;5016048;28;20026;-80
2021/10/19 09:06:36;;;;;;;5.50;3.05;;;11.10;99.90;;;;;;5014385;28;20057;-80
2021/10/19 09:09:14;;;;;;;4.85;1.80;;;11.20;99.90;;;;;;5019627;28;20037;-80
2021/10/19 09:11:42;;;;;;;5.20;2.20;;;11.20;99.90;;;;;;5035358;28;20715;-80
2021/10/19 09:14:10;;;;;;;4.80;2.55;;;11.30;99.90;;;;;;5043730;28;20085;-80
2021/10/19 09:16:38;;;;;;;4.85;1.98;;;11.30;99.90;;;;;;5027952;28;20032;-81
2021/10/19 09:19:04;;;;;;;4.13;2.00;;;11.40;99.90;;;;;;5034274;28;20037;-80
2021/10/19 09:21:30;;;;;;;4.25;1.88;;;11.40;99.90;;;;;;5041291;28;20454;-80
2021/10/19 09:24:27;;;;;;;4.53;1.98;;;11.40;99.90;;;;;;5031638;28;20034;-81
2021/10/19 09:27:13;;;;;;;3.08;1.40;;;11.50;99.90;;;;;;5039549;28;20025;-80
2021/10/19 09:29:47;;;;;;;3.20;1.40;;;11.50;99.90;;;;;;5032067;28;20022;-80
2021/10/19 09:32:14;;;;;;;3.10;1.35;;;11.50;99.90;;;;;;5032086;28;20416;-81
2021/10/19 09:34:43;;;;;;;3.25;1.13;;;11.50;99.90;;;;;;5014354;28;20107;-80
2021/10/19 09:37:16;;;;;;;3.00;1.15;;;11.60;99.90;;;;;;5013974;28;20050;-80
2021/10/19 09:39:46;;;;;;;3.20;1.25;;;11.70;99.90;;;;;;5011525;28;20037;-81
2021/10/19 09:42:18;;;;;;;3.70;1.00;;;11.90;99.90;;;;;;5014695;28;20030;-80
2021/10/19 09:44:59;;;;;;;2.25;0.77;;;11.90;99.90;;;;;;5031442;28;20056;-80
2021/10/19 09:47:25;;;;;;;2.05;0.88;;;12.00;99.90;;;;;;5029407;28;20489;-80
2021/10/19 09:49:51;;;;;;;1.80;0.80;;;11.90;99.90;;;;;;5030026;28;20033;-81
2021/10/19 09:52:18;;;;;;;1.85;0.77;;;11.90;99.90;;;;;;5013678;28;20124;-79
2021/10/19 09:54:47;;;;;;;2.70;1.00;;;12.00;99.90;;;;;;5012202;28;20030;-81
2021/10/19 09:57:13;;;;;;;2.28;1.00;;;12.00;99.90;;;;;;5012987;28;20034;-80
2021/10/19 09:59:40;;;;;;;4.22;1.15;;;12.00;99.90;;;;;;5037736;28;20064;-81
2021/10/19 10:02:12;;;;;;;4.68;1.10;;;12.10;99.90;;;;;;5013538;28;20092;-80
2021/10/19 10:04:38;;;;;;;2.72;0.85;;;12.10;99.90;;;;;;5013271;28;20056;-81
2021/10/19 10:07:06;;;;;;;3.03;0.82;;;12.10;99.90;;;;;;5013013;28;20029;-80
2021/10/19 10:09:33;;;;;;;2.95;0.98;;;12.20;99.90;;;;;;5012094;28;20037;-80
2021/10/19 10:11:59;;;;;;;2.35;0.80;;;12.20;99.90;;;;;;5013062;28;20421;-80
2021/10/19 10:14:25;;;;;;;1.60;0.68;;;12.20;99.90;;;;;;5031609;28;20113;-81
2021/10/19 10:16:52;;;;;;;2.25;0.80;;;12.30;99.90;;;;;;5035040;28;20037;-81
2021/10/19 10:19:21;;;;;;;1.65;0.90;;;12.30;99.90;;;;;;5038324;28;20034;-81
2021/10/19 10:21:52;;;;;;;3.80;0.80;;;12.30;99.90;;;;;;5042737;28;20021;-81
2021/10/19 10:24:32;;;;;;;2.35;0.70;;;12.30;99.90;;;;;;5029401;28;20034;-81
2021/10/19 10:27:07;;;;;;;3.30;0.90;;;12.30;99.90;;;;;;5041257;28;20135;-81
2021/10/19 10:29:47;;;;;;;2.60;0.90;;;12.30;99.90;;;;;;5038983;28;20032;-80
2021/10/19 10:32:33;;;;;;;1.85;0.75;;;12.30;99.90;;;;;;5045051;28;20564;-80
2021/10/19 10:35:11;;;;;;;4.10;0.90;;;12.30;99.90;;;;;;5036331;28;20033;-81
2021/10/19 10:37:41;;;;;;;2.33;0.85;;;12.30;99.90;;;;;;5037546;28;20544;-81
2021/10/19 10:40:09;;;;;;;2.70;0.93;;;12.30;99.90;;;;;;5034603;28;20025;-81
2021/10/19 10:42:40;;;;;;;1.92;0.85;;;12.30;99.90;;;;;;5036351;28;20033;-81
2021/10/19 10:45:35;;;;;;;2.78;1.23;;;12.30;99.90;;;;;;5039740;28;20539;-81
2021/10/19 10:48:04;;;;;;;3.00;1.08;;;12.30;99.90;;;;;;5029985;28;20049;-81
2021/10/19 10:50:36;;;;;;;2.33;0.93;;;12.30;99.90;;;;;;5033901;28;20064;-80
2021/10/19 10:53:07;;;;;;;2.42;0.95;;;12.30;99.90;;;;;;5018149;28;20104;-81
2021/10/19 10:55:51;;;;;;;3.03;1.10;;;12.30;99.90;;;;;;5044564;28;20041;-81
2021/10/19 10:58:32;;;;;;;3.50;1.00;;;12.40;99.90;;;;;;5046451;28;20067;-82
2021/10/19 11:00:59;;;;;;;2.55;1.17;;;12.40;99.90;;;;;;5042721;28;20025;-82
2021/10/19 11:03:25;;;;;;;2.63;0.85;;;12.40;99.90;;;;;;5046798;28;20164;-82
2021/10/19 11:06:02;;;;;;;2.50;1.00;;;12.40;99.90;;;;;;5056092;28;20122;-82
2021/10/19 11:08:30;;;;;;;2.58;1.23;;;12.40;99.90;;;;;;5057641;28;20060;-81
2021/10/19 11:11:12;;;;;;;3.67;1.23;;;12.50;99.90;;;;;;5020435;28;20022;-82
2021/10/19 11:13:50;;;;;;;;;;;12.50;99.90;;;;;;5032630;28;20036;-82
2021/10/19 11:16:27;;;;;;;3.20;1.20;;;12.50;99.90;;;;;;5036434;28;20003;-82
2021/10/19 11:18:53;;;;;;;4.10;1.38;;;12.60;99.90;;;;;;5027007;28;20038;-82
2021/10/19 11:21:19;;;;;;;3.38;1.27;;;12.70;99.90;;;;;;5016893;28;20174;-82
2021/10/19 11:23:48;;;;;;;2.42;1.00;;;12.70;99.90;;;;;;5019107;28;20026;-81
2021/10/19 11:26:14;;;;;;;3.30;1.08;;;12.80;99.90;;;;;;5039303;28;20029;-82
2021/10/19 11:28:42;;;;;;;2.33;1.05;;;12.80;99.90;;;;;;5043283;28;20028;-82
2021/10/19 11:31:08;;;;;;;2.67;1.13;;;12.90;99.90;;;;;;5038558;28;20068;-82
2021/10/19 11:33:36;;;;;;;2.50;1.00;;;12.90;99.90;;;;;;5039045;28;20492;-81
2021/10/19 11:36:02;;;;;;;3.28;1.20;;;12.90;99.90;;;;;;5042720;28;20418;-81
2021/10/19 11:38:28;;;;;;;4.30;1.60;;;12.90;99.90;;;;;;5041994;28;20025;-81
2021/10/19 11:41:10;;;;;;;4.40;1.60;;;12.90;99.90;;;;;;5032563;28;20063;-81
2021/10/19 11:43:46;;;;;;;3.65;1.30;;;12.90;99.90;;;;;;5029270;28;20018;-81
2021/10/19 11:46:18;;;;;;;3.38;1.10;;;12.90;99.90;;;;;;4994431;28;20494;-82
2021/10/19 11:48:47;;;;;;;2.05;0.93;;;12.90;99.90;;;;;;5015944;28;20065;-82
2021/10/19 11:51:14;;;;;;;2.53;0.98;;;12.90;99.90;;;;;;5019555;28;20391;-82
2021/10/19 11:53:48;;;;;;;2.65;1.20;;;13.00;99.90;;;;;;5034262;28;20036;-81
2021/10/19 11:56:16;;;;;;;3.10;1.17;;;13.00;99.90;;;;;;5017958;28;20113;-80
2021/10/19 11:58:55;;;;;;;3.45;1.50;;;13.10;99.90;;;;;;5028512;28;20021;-80
2021/10/19 12:01:23;;;;;;;2.38;1.00;;;13.10;99.90;;;;;;5041536;28;20101;-82
2021/10/19 12:04:01;;;;;;;2.05;1.00;;;13.10;99.90;;;;;;5035751;28;20013;-84
2021/10/19 12:06:29;;;;;;;2.63;0.98;;;13.20;99.90;;;;;;5041762;28;20053;-85
2021/10/19 12:08:56;;;;;;;2.92;1.20;;;13.20;99.90;;;;;;5041729;28;20044;-84
2021/10/19 12:11:24;;;;;;;4.95;1.33;;;13.20;99.90;;;;;;5041048;28;20108;-84
2021/10/19 12:13:58;;;;;;;2.50;1.00;;;13.20;99.90;;;;;;5040488;28;20525;-84
2021/10/19 12:16:28;;;;;;;2.53;0.82;;;13.20;99.90;;;;;;5042596;28;20049;-83
2021/10/19 12:18:56;;;;;;;2.42;1.05;;;13.30;99.90;;;;;;5039796;28;20030;-85
2021/10/19 12:21:22;;;;;;;4.10;1.42;;;13.20;99.90;;;;;;5042429;28;20025;-83
2021/10/19 12:23:50;;;;;;;2.88;1.25;;;13.20;99.90;;;;;;5040900;28;20156;-84
2021/10/19 12:26:19;;;;;;;2.40;1.10;;;13.20;99.90;;;;;;5040821;28;20029;-81
2021/10/19 12:28:53;;;;;;;2.25;0.85;;;13.20;99.90;;;;;;5035752;28;20053;-84
2021/10/19 12:31:20;;;;;;;3.13;1.10;;;13.20;99.90;;;;;;5037632;28;20398;-81
2021/10/19 12:33:57;;;;;;;5.68;0.98;;;13.20;99.90;;;;;;5039629;28;20030;-83
2021/10/19 12:36:27;;;;;;;3.97;0.98;;;13.20;99.90;;;;;;5039526;28;20014;-82
2021/10/19 12:38:55;;;;;;;3.25;1.02;;;13.10;99.90;;;;;;5036171;28;20109;-82
2021/10/19 12:41:21;;;;;;;2.42;0.82;;;13.20;99.90;;;;;;5036259;28;20029;-81
2021/10/19 12:43:49;;;;;;;2.83;0.90;;;13.10;99.90;;;;;;5040021;28;20037;-85
2021/10/19 12:46:17;;;;;;;2.35;1.17;;;13.10;99.90;;;;;;5037042;28;20093;-84
2021/10/19 12:48:43;;;;;;;2.85;0.93;;;13.10;99.90;;;;;;5034249;28;20037;-82
2021/10/19 12:51:11;;;;;;;2.60;0.85;;;13.20;99.90;;;;;;5035197;28;20506;-84
2021/10/19 12:53:37;;;;;;;2.55;1.15;;;13.20;99.90;;;;;;5034694;28;20033;-82